Terminal Aerodrome Forecast
Issued by NWS

Home | Current Version | Previous Version | Text Only | Print | Product List | Glossary On
Versions: 1 2 3 4 5 6 7 8 9 10 11 12 13 14 15 16 17 18 19 20
000
FTUS41 KCAR 310534
TAFFVE
TAF
KFVE 310534Z 3106/0106 34012G25KT 3SM -SN BR SCT025 OVC035
      TEMPO 3106/3110 1SM -SN BLSN BKN012 OVC025
     FM311000 34011G27KT 1SM -SN BLSN SCT007 OVC015
     FM312000 34018G28KT 4SM -SHSN BLSN OVC025
     FM010000 32018G28KT 5SM BLSN SCT025=

USA.gov is the U.S. government's official web portal to all federal, state and local government web resources and services.